チタ の空港の天気 - METARとTAF

チタ・カダラ空港 ( UIAA / HTA ) - ロシア チタ
飛行場実況気象(Metar)
観測時間06/23 10:00 YAKT (06/23 01:00 UTC)
風向・風速不定 1m/s
視程10km以上
天気現象
なし
気温23℃
湿度41%
気圧1012hPa
METARUIAA 230100Z VRB01MPS 9999 NSC 23/09 Q1012 R29/CLRD70 NOSIG RMK QFE700/0934
過去の天気等 Google飛行場航空写真 Wunderground天気予報

過去48時間のMETAR

飛行場予報(TAF)
発表時間: 6/23 08:00 YAKT (6/22 23:00 UTC)
予報対象時間: 23日9時 YAKT ~ 24日9時 YAKT
風向・風速南 5m/s
視程10km以上
全天の4割程度の積乱雲 雲底高度 1,010m
23日14時 YAKT ~ 23日21時 YAKT に一時的に
風向・風速西北西 3m/s 瞬間風速 8m/s
TAF UIAA 222300Z 2300/2324 18005MPS 9999 SCT033CB
TEMPO 2305/2312 30003G08MPS